sensor_id;sensor_type;location;lat;lon;timestamp;temperature;humidity
26623;DHT22;14254;50.968;5.366;2022-12-07T00:01:22;6.40;99.90
26623;DHT22;14254;50.968;5.366;2022-12-07T00:03:50;6.40;99.90
26623;DHT22;14254;50.968;5.366;2022-12-07T00:06:17;6.40;99.90
26623;DHT22;14254;50.968;5.366;2022-12-07T00:08:43;6.20;99.90
26623;DHT22;14254;50.968;5.366;2022-12-07T00:11:10;6.20;99.90
26623;DHT22;14254;50.968;5.366;2022-12-07T00:13:37;6.30;99.90
26623;DHT22;14254;50.968;5.366;2022-12-07T00:16:14;6.20;99.90
26623;DHT22;14254;50.968;5.366;2022-12-07T00:18:40;6.20;99.90
26623;DHT22;14254;50.968;5.366;2022-12-07T00:21:10;6.20;99.90
26623;DHT22;14254;50.968;5.366;2022-12-07T00:23:36;6.10;99.90
26623;DHT22;14254;50.968;5.366;2022-12-07T00:28:31;6.00;99.90
26623;DHT22;14254;50.968;5.366;2022-12-07T00:31:01;5.80;99.90
26623;DHT22;14254;50.968;5.366;2022-12-07T00:33:27;5.70;99.90
26623;DHT22;14254;50.968;5.366;2022-12-07T00:35:58;5.60;99.90
26623;DHT22;14254;50.968;5.366;2022-12-07T00:38:24;5.50;99.90
26623;DHT22;14254;50.968;5.366;2022-12-07T00:40:56;5.50;99.90
26623;DHT22;14254;50.968;5.366;2022-12-07T00:43:22;5.60;99.90
26623;DHT22;14254;50.968;5.366;2022-12-07T00:45:48;5.60;99.90
26623;DHT22;14254;50.968;5.366;2022-12-07T00:48:13;5.60;99.90
26623;DHT22;14254;50.968;5.366;2022-12-07T00:50:39;5.70;99.90
26623;DHT22;14254;50.968;5.366;2022-12-07T00:53:05;5.80;99.90
26623;DHT22;14254;50.968;5.366;2022-12-07T00:55:34;5.90;99.90
26623;DHT22;14254;50.968;5.366;2022-12-07T00:58:00;5.80;99.90
26623;DHT22;14254;50.968;5.366;2022-12-07T01:00:26;5.70;99.90
26623;DHT22;14254;50.968;5.366;2022-12-07T01:02:52;5.70;99.90
26623;DHT22;14254;50.968;5.366;2022-12-07T01:05:18;5.90;99.90
26623;DHT22;14254;50.968;5.366;2022-12-07T01:07:43;5.90;99.90
26623;DHT22;14254;50.968;5.366;2022-12-07T01:10:09;5.90;99.90
26623;DHT22;14254;50.968;5.366;2022-12-07T01:12:35;5.90;99.90
26623;DHT22;14254;50.968;5.366;2022-12-07T01:15:01;5.90;99.90
26623;DHT22;14254;50.968;5.366;2022-12-07T01:17:28;5.90;99.90
26623;DHT22;14254;50.968;5.366;2022-12-07T01:19:53;6.00;99.90
26623;DHT22;14254;50.968;5.366;2022-12-07T01:22:19;5.90;99.90
26623;DHT22;14254;50.968;5.366;2022-12-07T01:24:45;5.90;99.90
26623;DHT22;14254;50.968;5.366;2022-12-07T01:27:12;5.90;99.90
26623;DHT22;14254;50.968;5.366;2022-12-07T01:29:38;6.00;99.90
26623;DHT22;14254;50.968;5.366;2022-12-07T01:32:04;5.90;99.90
26623;DHT22;14254;50.968;5.366;2022-12-07T01:34:30;6.00;99.90
26623;DHT22;14254;50.968;5.366;2022-12-07T01:36:55;6.00;99.90
26623;DHT22;14254;50.968;5.366;2022-12-07T01:39:21;6.00;99.90
26623;DHT22;14254;50.968;5.366;2022-12-07T01:41:47;5.90;99.90
26623;DHT22;14254;50.968;5.366;2022-12-07T01:46:51;5.90;99.90
26623;DHT22;14254;50.968;5.366;2022-12-07T01:49:43;6.00;99.90
26623;DHT22;14254;50.968;5.366;2022-12-07T01:54:53;6.00;99.90
26623;DHT22;14254;50.968;5.366;2022-12-07T01:57:20;6.10;99.90
26623;DHT22;14254;50.968;5.366;2022-12-07T01:59:49;6.00;99.90
26623;DHT22;14254;50.968;5.366;2022-12-07T02:02:20;5.90;99.90
26623;DHT22;14254;50.968;5.366;2022-12-07T02:04:48;5.80;99.90
26623;DHT22;14254;50.968;5.366;2022-12-07T02:07:15;5.80;99.90
26623;DHT22;14254;50.968;5.366;2022-12-07T02:09:40;5.80;99.90
26623;DHT22;14254;50.968;5.366;2022-12-07T02:12:06;5.70;99.90
26623;DHT22;14254;50.968;5.366;2022-12-07T02:14:32;5.60;99.90
26623;DHT22;14254;50.968;5.366;2022-12-07T02:17:07;5.50;99.90
26623;DHT22;14254;50.968;5.366;2022-12-07T02:19:55;5.60;99.90
26623;DHT22;14254;50.968;5.366;2022-12-07T02:22:40;5.70;99.90
26623;DHT22;14254;50.968;5.366;2022-12-07T02:28:36;5.80;99.90
26623;DHT22;14254;50.968;5.366;2022-12-07T02:31:10;5.70;99.90
26623;DHT22;14254;50.968;5.366;2022-12-07T02:33:50;5.80;99.90
26623;DHT22;14254;50.968;5.366;2022-12-07T02:36:26;5.70;99.90
26623;DHT22;14254;50.968;5.366;2022-12-07T02:39:08;5.70;99.90
26623;DHT22;14254;50.968;5.366;2022-12-07T02:41:40;5.50;99.90
26623;DHT22;14254;50.968;5.366;2022-12-07T02:44:11;5.60;99.90
26623;DHT22;14254;50.968;5.366;2022-12-07T02:46:46;5.70;99.90
26623;DHT22;14254;50.968;5.366;2022-12-07T02:49:12;5.70;99.90
26623;DHT22;14254;50.968;5.366;2022-12-07T02:51:43;5.70;99.90
26623;DHT22;14254;50.968;5.366;2022-12-07T02:54:17;5.80;99.90
26623;DHT22;14254;50.968;5.366;2022-12-07T03:02:08;5.80;99.90
26623;DHT22;14254;50.968;5.366;2022-12-07T03:04:53;5.90;99.90
26623;DHT22;14254;50.968;5.366;2022-12-07T03:13:28;6.00;99.90
26623;DHT22;14254;50.968;5.366;2022-12-07T03:16:17;6.00;99.90
26623;DHT22;14254;50.968;5.366;2022-12-07T03:18:53;6.10;99.90
26623;DHT22;14254;50.968;5.366;2022-12-07T03:21:25;6.00;99.90
26623;DHT22;14254;50.968;5.366;2022-12-07T03:23:56;5.70;99.90
26623;DHT22;14254;50.968;5.366;2022-12-07T03:26:24;5.70;99.90
26623;DHT22;14254;50.968;5.366;2022-12-07T03:28:54;5.60;99.90
26623;DHT22;14254;50.968;5.366;2022-12-07T03:31:29;5.60;99.90
26623;DHT22;14254;50.968;5.366;2022-12-07T03:33:59;5.40;99.90
26623;DHT22;14254;50.968;5.366;2022-12-07T03:36:32;5.10;99.90
26623;DHT22;14254;50.968;5.366;2022-12-07T03:41:50;5.20;99.90
26623;DHT22;14254;50.968;5.366;2022-12-07T03:44:17;5.40;99.90
26623;DHT22;14254;50.968;5.366;2022-12-07T03:47:03;5.60;99.90
26623;DHT22;14254;50.968;5.366;2022-12-07T03:49:50;5.70;99.90
26623;DHT22;14254;50.968;5.366;2022-12-07T03:52:30;5.70;99.90
26623;DHT22;14254;50.968;5.366;2022-12-07T03:57:32;5.90;99.90
26623;DHT22;14254;50.968;5.366;2022-12-07T03:59:59;6.00;99.90
26623;DHT22;14254;50.968;5.366;2022-12-07T04:02:27;6.00;99.90
26623;DHT22;14254;50.968;5.366;2022-12-07T04:04:54;5.90;99.90
26623;DHT22;14254;50.968;5.366;2022-12-07T04:07:21;5.90;99.90
26623;DHT22;14254;50.968;5.366;2022-12-07T04:09:46;5.60;99.90
26623;DHT22;14254;50.968;5.366;2022-12-07T04:12:12;5.50;99.90
26623;DHT22;14254;50.968;5.366;2022-12-07T04:14:38;5.40;99.90
26623;DHT22;14254;50.968;5.366;2022-12-07T04:17:04;5.30;99.90
26623;DHT22;14254;50.968;5.366;2022-12-07T04:19:33;5.40;99.90
26623;DHT22;14254;50.968;5.366;2022-12-07T04:22:01;5.40;99.90
26623;DHT22;14254;50.968;5.366;2022-12-07T04:24:27;5.40;99.90
26623;DHT22;14254;50.968;5.366;2022-12-07T04:26:53;5.40;99.90
26623;DHT22;14254;50.968;5.366;2022-12-07T04:29:20;5.40;99.90
26623;DHT22;14254;50.968;5.366;2022-12-07T04:31:46;5.40;99.90
26623;DHT22;14254;50.968;5.366;2022-12-07T04:34:12;5.30;99.90
26623;DHT22;14254;50.968;5.366;2022-12-07T04:36:39;5.20;99.90
26623;DHT22;14254;50.968;5.366;2022-12-07T04:39:06;5.10;99.90
26623;DHT22;14254;50.968;5.366;2022-12-07T04:41:32;5.00;99.90
26623;DHT22;14254;50.968;5.366;2022-12-07T04:44:03;5.20;99.90
26623;DHT22;14254;50.968;5.366;2022-12-07T04:46:32;5.30;99.90
26623;DHT22;14254;50.968;5.366;2022-12-07T04:48:58;5.30;99.90
26623;DHT22;14254;50.968;5.366;2022-12-07T04:51:27;5.50;99.90
26623;DHT22;14254;50.968;5.366;2022-12-07T04:53:53;5.50;99.90
26623;DHT22;14254;50.968;5.366;2022-12-07T04:56:19;5.50;99.90
26623;DHT22;14254;50.968;5.366;2022-12-07T04:58:47;5.50;99.90
26623;DHT22;14254;50.968;5.366;2022-12-07T05:01:14;5.40;99.90
26623;DHT22;14254;50.968;5.366;2022-12-07T05:03:39;5.30;99.90
26623;DHT22;14254;50.968;5.366;2022-12-07T05:06:05;5.30;99.90
26623;DHT22;14254;50.968;5.366;2022-12-07T05:08:33;5.20;99.90
26623;DHT22;14254;50.968;5.366;2022-12-07T05:11:00;5.20;99.90
26623;DHT22;14254;50.968;5.366;2022-12-07T05:13:26;5.10;99.90
26623;DHT22;14254;50.968;5.366;2022-12-07T05:15:51;5.00;99.90
26623;DHT22;14254;50.968;5.366;2022-12-07T05:18:17;4.90;99.90
26623;DHT22;14254;50.968;5.366;2022-12-07T05:20:43;4.90;99.90
26623;DHT22;14254;50.968;5.366;2022-12-07T05:23:09;4.80;99.90
26623;DHT22;14254;50.968;5.366;2022-12-07T05:25:35;5.00;99.90
26623;DHT22;14254;50.968;5.366;2022-12-07T05:28:01;5.00;99.90
26623;DHT22;14254;50.968;5.366;2022-12-07T05:30:27;5.00;99.90
26623;DHT22;14254;50.968;5.366;2022-12-07T05:32:53;5.00;99.90
26623;DHT22;14254;50.968;5.366;2022-12-07T05:35:19;5.00;99.90
26623;DHT22;14254;50.968;5.366;2022-12-07T05:37:44;5.10;99.90
26623;DHT22;14254;50.968;5.366;2022-12-07T05:40:11;5.10;99.90
26623;DHT22;14254;50.968;5.366;2022-12-07T05:42:38;4.90;99.90
26623;DHT22;14254;50.968;5.366;2022-12-07T05:45:04;4.90;99.90
26623;DHT22;14254;50.968;5.366;2022-12-07T05:47:30;4.80;99.90
26623;DHT22;14254;50.968;5.366;2022-12-07T05:49:56;4.90;99.90
26623;DHT22;14254;50.968;5.366;2022-12-07T05:52:21;5.00;99.90
26623;DHT22;14254;50.968;5.366;2022-12-07T05:54:47;5.10;99.90
26623;DHT22;14254;50.968;5.366;2022-12-07T05:57:13;5.10;99.90
26623;DHT22;14254;50.968;5.366;2022-12-07T05:59:39;5.30;99.90
26623;DHT22;14254;50.968;5.366;2022-12-07T06:02:10;5.30;99.90
26623;DHT22;14254;50.968;5.366;2022-12-07T06:04:40;5.20;99.90
26623;DHT22;14254;50.968;5.366;2022-12-07T06:07:06;5.20;99.90
26623;DHT22;14254;50.968;5.366;2022-12-07T06:09:33;5.20;99.90
26623;DHT22;14254;50.968;5.366;2022-12-07T06:12:02;5.30;99.90
26623;DHT22;14254;50.968;5.366;2022-12-07T06:14:47;5.20;99.90
26623;DHT22;14254;50.968;5.366;2022-12-07T06:17:13;5.30;99.90
26623;DHT22;14254;50.968;5.366;2022-12-07T06:19:39;5.10;99.90
26623;DHT22;14254;50.968;5.366;2022-12-07T06:22:06;4.90;99.90
26623;DHT22;14254;50.968;5.366;2022-12-07T06:24:32;5.00;99.90
26623;DHT22;14254;50.968;5.366;2022-12-07T06:26:58;5.10;99.90
26623;DHT22;14254;50.968;5.366;2022-12-07T06:29:24;5.20;99.90
26623;DHT22;14254;50.968;5.366;2022-12-07T06:31:50;5.10;99.90
26623;DHT22;14254;50.968;5.366;2022-12-07T06:34:18;5.20;99.90
26623;DHT22;14254;50.968;5.366;2022-12-07T06:36:44;5.20;99.90
26623;DHT22;14254;50.968;5.366;2022-12-07T06:39:10;5.30;99.90
26623;DHT22;14254;50.968;5.366;2022-12-07T06:41:37;5.30;99.90
26623;DHT22;14254;50.968;5.366;2022-12-07T06:44:06;5.30;99.90
26623;DHT22;14254;50.968;5.366;2022-12-07T06:46:32;5.30;99.90
26623;DHT22;14254;50.968;5.366;2022-12-07T06:49:03;5.20;99.90
26623;DHT22;14254;50.968;5.366;2022-12-07T06:51:34;5.40;99.90
26623;DHT22;14254;50.968;5.366;2022-12-07T06:54:08;5.40;99.90
26623;DHT22;14254;50.968;5.366;2022-12-07T06:56:34;5.30;99.90
26623;DHT22;14254;50.968;5.366;2022-12-07T06:58:59;5.30;99.90
26623;DHT22;14254;50.968;5.366;2022-12-07T07:01:25;5.30;99.90
26623;DHT22;14254;50.968;5.366;2022-12-07T07:03:50;5.20;99.90
26623;DHT22;14254;50.968;5.366;2022-12-07T07:06:16;5.20;99.90
26623;DHT22;14254;50.968;5.366;2022-12-07T07:08:42;5.10;99.90
26623;DHT22;14254;50.968;5.366;2022-12-07T07:11:08;5.10;99.90
26623;DHT22;14254;50.968;5.366;2022-12-07T07:13:34;5.10;99.90
26623;DHT22;14254;50.968;5.366;2022-12-07T07:16:00;5.00;99.90
26623;DHT22;14254;50.968;5.366;2022-12-07T07:18:26;4.90;99.90
26623;DHT22;14254;50.968;5.366;2022-12-07T07:20:57;4.80;99.90
26623;DHT22;14254;50.968;5.366;2022-12-07T07:23:23;4.90;99.90
26623;DHT22;14254;50.968;5.366;2022-12-07T07:25:48;4.80;99.90
26623;DHT22;14254;50.968;5.366;2022-12-07T07:28:15;4.80;99.90
26623;DHT22;14254;50.968;5.366;2022-12-07T07:30:41;4.60;99.90
26623;DHT22;14254;50.968;5.366;2022-12-07T07:33:07;4.50;99.90
26623;DHT22;14254;50.968;5.366;2022-12-07T07:35:34;4.40;99.90
26623;DHT22;14254;50.968;5.366;2022-12-07T07:38:00;4.20;99.90
26623;DHT22;14254;50.968;5.366;2022-12-07T07:40:27;4.10;99.90
26623;DHT22;14254;50.968;5.366;2022-12-07T07:42:54;4.10;99.90
26623;DHT22;14254;50.968;5.366;2022-12-07T07:45:21;4.20;99.90
26623;DHT22;14254;50.968;5.366;2022-12-07T07:47:47;4.20;99.90
26623;DHT22;14254;50.968;5.366;2022-12-07T07:50:13;4.10;99.90
26623;DHT22;14254;50.968;5.366;2022-12-07T07:52:39;3.90;99.90
26623;DHT22;14254;50.968;5.366;2022-12-07T07:55:05;3.90;99.90
26623;DHT22;14254;50.968;5.366;2022-12-07T07:57:34;3.90;99.90
26623;DHT22;14254;50.968;5.366;2022-12-07T08:00:00;3.70;99.90
26623;DHT22;14254;50.968;5.366;2022-12-07T08:02:26;3.60;99.90
26623;DHT22;14254;50.968;5.366;2022-12-07T08:04:55;3.50;99.90
26623;DHT22;14254;50.968;5.366;2022-12-07T08:07:20;3.50;99.90
26623;DHT22;14254;50.968;5.366;2022-12-07T08:09:46;3.60;99.90
26623;DHT22;14254;50.968;5.366;2022-12-07T08:12:12;4.00;99.90
26623;DHT22;14254;50.968;5.366;2022-12-07T08:14:37;3.90;99.90
26623;DHT22;14254;50.968;5.366;2022-12-07T08:17:03;4.10;99.90
26623;DHT22;14254;50.968;5.366;2022-12-07T08:19:29;4.30;99.90
26623;DHT22;14254;50.968;5.366;2022-12-07T08:21:55;4.60;99.90
26623;DHT22;14254;50.968;5.366;2022-12-07T08:24:22;4.70;99.90
26623;DHT22;14254;50.968;5.366;2022-12-07T08:26:47;4.80;99.90
26623;DHT22;14254;50.968;5.366;2022-12-07T08:29:15;5.00;99.90
26623;DHT22;14254;50.968;5.366;2022-12-07T08:31:41;5.00;99.90
26623;DHT22;14254;50.968;5.366;2022-12-07T08:34:06;5.00;99.90
26623;DHT22;14254;50.968;5.366;2022-12-07T08:36:32;5.00;99.90
26623;DHT22;14254;50.968;5.366;2022-12-07T08:38:58;5.20;99.90
26623;DHT22;14254;50.968;5.366;2022-12-07T08:41:23;5.30;99.90
26623;DHT22;14254;50.968;5.366;2022-12-07T08:43:50;5.40;99.90
26623;DHT22;14254;50.968;5.366;2022-12-07T08:49:21;5.60;99.90
26623;DHT22;14254;50.968;5.366;2022-12-07T08:51:48;5.60;99.90
26623;DHT22;14254;50.968;5.366;2022-12-07T08:54:17;5.80;99.90
26623;DHT22;14254;50.968;5.366;2022-12-07T08:56:44;5.80;99.90
26623;DHT22;14254;50.968;5.366;2022-12-07T08:59:13;5.90;99.90
26623;DHT22;14254;50.968;5.366;2022-12-07T09:01:40;5.90;99.90
26623;DHT22;14254;50.968;5.366;2022-12-07T09:04:05;6.10;99.90
26623;DHT22;14254;50.968;5.366;2022-12-07T09:06:31;6.20;99.90
26623;DHT22;14254;50.968;5.366;2022-12-07T09:08:58;6.20;99.90
26623;DHT22;14254;50.968;5.366;2022-12-07T09:11:25;6.10;99.90
26623;DHT22;14254;50.968;5.366;2022-12-07T09:13:50;6.20;99.90
26623;DHT22;14254;50.968;5.366;2022-12-07T09:16:16;6.10;99.90
26623;DHT22;14254;50.968;5.366;2022-12-07T09:18:42;6.20;99.90
26623;DHT22;14254;50.968;5.366;2022-12-07T09:21:07;6.10;99.90
26623;DHT22;14254;50.968;5.366;2022-12-07T09:23:33;6.10;99.90
26623;DHT22;14254;50.968;5.366;2022-12-07T09:26:00;6.30;99.90
26623;DHT22;14254;50.968;5.366;2022-12-07T09:28:26;6.50;99.90
26623;DHT22;14254;50.968;5.366;2022-12-07T09:30:52;6.50;99.90
26623;DHT22;14254;50.968;5.366;2022-12-07T09:33:18;6.40;99.90
26623;DHT22;14254;50.968;5.366;2022-12-07T09:35:47;6.40;99.90
26623;DHT22;14254;50.968;5.366;2022-12-07T09:38:13;6.40;99.90
26623;DHT22;14254;50.968;5.366;2022-12-07T09:40:40;6.50;99.90
26623;DHT22;14254;50.968;5.366;2022-12-07T09:43:17;6.50;99.90
26623;DHT22;14254;50.968;5.366;2022-12-07T09:45:44;6.60;99.90
26623;DHT22;14254;50.968;5.366;2022-12-07T09:48:20;6.70;99.90
26623;DHT22;14254;50.968;5.366;2022-12-07T09:50:47;6.60;99.90
26623;DHT22;14254;50.968;5.366;2022-12-07T09:53:21;6.90;99.90
26623;DHT22;14254;50.968;5.366;2022-12-07T09:55:48;7.10;99.90
26623;DHT22;14254;50.968;5.366;2022-12-07T09:58:23;7.00;99.90
26623;DHT22;14254;50.968;5.366;2022-12-07T10:00:52;6.70;99.90
26623;DHT22;14254;50.968;5.366;2022-12-07T10:03:18;6.80;99.90
26623;DHT22;14254;50.968;5.366;2022-12-07T10:05:46;6.70;99.90
26623;DHT22;14254;50.968;5.366;2022-12-07T10:08:14;6.80;99.90
26623;DHT22;14254;50.968;5.366;2022-12-07T10:10:43;7.00;99.90
26623;DHT22;14254;50.968;5.366;2022-12-07T10:13:14;7.10;99.90
26623;DHT22;14254;50.968;5.366;2022-12-07T10:15:50;7.20;99.90
26623;DHT22;14254;50.968;5.366;2022-12-07T10:21:18;7.20;99.90
26623;DHT22;14254;50.968;5.366;2022-12-07T10:26:38;7.00;99.90
26623;DHT22;14254;50.968;5.366;2022-12-07T10:29:49;6.50;99.90
26623;DHT22;14254;50.968;5.366;2022-12-07T10:34:40;6.60;99.90
26623;DHT22;14254;50.968;5.366;2022-12-07T10:37:18;6.70;99.90
26623;DHT22;14254;50.968;5.366;2022-12-07T10:42:30;6.90;99.90
26623;DHT22;14254;50.968;5.366;2022-12-07T10:45:12;7.00;99.90
26623;DHT22;14254;50.968;5.366;2022-12-07T10:50:47;7.00;99.90
26623;DHT22;14254;50.968;5.366;2022-12-07T10:53:24;6.90;99.90
26623;DHT22;14254;50.968;5.366;2022-12-07T10:58:34;7.20;99.90
26623;DHT22;14254;50.968;5.366;2022-12-07T11:04:12;7.20;99.90
26623;DHT22;14254;50.968;5.366;2022-12-07T11:12:35;7.70;99.90
26623;DHT22;14254;50.968;5.366;2022-12-07T11:31:53;9.00;99.90
26623;DHT22;14254;50.968;5.366;2022-12-07T11:36:56;9.20;99.90
26623;DHT22;14254;50.968;5.366;2022-12-07T11:41:50;9.30;99.90
26623;DHT22;14254;50.968;5.366;2022-12-07T11:44:47;9.20;99.90
26623;DHT22;14254;50.968;5.366;2022-12-07T11:47:40;9.10;99.90
26623;DHT22;14254;50.968;5.366;2022-12-07T11:58:02;9.50;99.90
26623;DHT22;14254;50.968;5.366;2022-12-07T12:00:28;9.30;99.90
26623;DHT22;14254;50.968;5.366;2022-12-07T12:03:03;9.40;99.90
26623;DHT22;14254;50.968;5.366;2022-12-07T12:05:29;9.40;99.90
26623;DHT22;14254;50.968;5.366;2022-12-07T12:21:19;7.80;99.90
26623;DHT22;14254;50.968;5.366;2022-12-07T12:23:50;8.00;99.90
26623;DHT22;14254;50.968;5.366;2022-12-07T12:26:22;8.00;99.90
26623;DHT22;14254;50.968;5.366;2022-12-07T12:29:03;8.30;99.90
26623;DHT22;14254;50.968;5.366;2022-12-07T12:34:00;8.30;99.90
26623;DHT22;14254;50.968;5.366;2022-12-07T12:44:01;8.30;99.90
26623;DHT22;14254;50.968;5.366;2022-12-07T12:59:30;8.80;99.90
26623;DHT22;14254;50.968;5.366;2022-12-07T13:05:14;8.80;99.90
26623;DHT22;14254;50.968;5.366;2022-12-07T13:23:39;8.90;99.90
26623;DHT22;14254;50.968;5.366;2022-12-07T13:26:35;8.90;99.90
26623;DHT22;14254;50.968;5.366;2022-12-07T13:29:06;8.60;99.90
26623;DHT22;14254;50.968;5.366;2022-12-07T13:31:46;8.70;99.90
26623;DHT22;14254;50.968;5.366;2022-12-07T13:34:34;8.20;99.90
26623;DHT22;14254;50.968;5.366;2022-12-07T13:37:24;8.00;99.90
26623;DHT22;14254;50.968;5.366;2022-12-07T13:39:50;7.90;99.90
26623;DHT22;14254;50.968;5.366;2022-12-07T13:42:24;8.00;99.90
26623;DHT22;14254;50.968;5.366;2022-12-07T13:44:51;8.10;99.90
26623;DHT22;14254;50.968;5.366;2022-12-07T13:50:01;7.90;99.90
26623;DHT22;14254;50.968;5.366;2022-12-07T13:52:30;7.80;99.90
26623;DHT22;14254;50.968;5.366;2022-12-07T13:57:28;7.50;99.90
26623;DHT22;14254;50.968;5.366;2022-12-07T13:59:56;7.10;99.90
26623;DHT22;14254;50.968;5.366;2022-12-07T14:02:29;6.90;99.90
26623;DHT22;14254;50.968;5.366;2022-12-07T14:05:16;6.90;99.90
26623;DHT22;14254;50.968;5.366;2022-12-07T14:07:53;6.70;99.90
26623;DHT22;14254;50.968;5.366;2022-12-07T14:12:54;7.00;99.90
26623;DHT22;14254;50.968;5.366;2022-12-07T14:15:22;7.20;99.90
26623;DHT22;14254;50.968;5.366;2022-12-07T14:17:53;7.50;99.90
26623;DHT22;14254;50.968;5.366;2022-12-07T14:20:32;7.70;99.90
26623;DHT22;14254;50.968;5.366;2022-12-07T14:22:59;7.80;99.90
26623;DHT22;14254;50.968;5.366;2022-12-07T14:25:27;7.80;99.90
26623;DHT22;14254;50.968;5.366;2022-12-07T14:28:00;7.80;99.90
26623;DHT22;14254;50.968;5.366;2022-12-07T14:30:28;7.70;99.90
26623;DHT22;14254;50.968;5.366;2022-12-07T14:33:01;7.60;99.90
26623;DHT22;14254;50.968;5.366;2022-12-07T14:35:27;7.50;99.90
26623;DHT22;14254;50.968;5.366;2022-12-07T14:37:53;7.50;99.90
26623;DHT22;14254;50.968;5.366;2022-12-07T14:40:21;7.50;99.90
26623;DHT22;14254;50.968;5.366;2022-12-07T14:42:53;7.30;99.90
26623;DHT22;14254;50.968;5.366;2022-12-07T14:45:22;7.30;99.90
26623;DHT22;14254;50.968;5.366;2022-12-07T14:47:48;7.40;99.90
26623;DHT22;14254;50.968;5.366;2022-12-07T14:50:17;7.40;99.90
26623;DHT22;14254;50.968;5.366;2022-12-07T14:53:05;7.40;99.90
26623;DHT22;14254;50.968;5.366;2022-12-07T14:55:34;7.20;99.90
26623;DHT22;14254;50.968;5.366;2022-12-07T14:58:00;7.30;99.90
26623;DHT22;14254;50.968;5.366;2022-12-07T15:00:27;7.30;99.90
26623;DHT22;14254;50.968;5.366;2022-12-07T15:02:53;7.30;99.90
26623;DHT22;14254;50.968;5.366;2022-12-07T15:05:19;7.40;99.90
26623;DHT22;14254;50.968;5.366;2022-12-07T15:07:46;7.40;99.90
26623;DHT22;14254;50.968;5.366;2022-12-07T15:10:19;7.40;99.90
26623;DHT22;14254;50.968;5.366;2022-12-07T15:12:45;7.50;99.90
26623;DHT22;14254;50.968;5.366;2022-12-07T15:15:12;7.50;99.90
26623;DHT22;14254;50.968;5.366;2022-12-07T15:17:38;7.50;99.90
26623;DHT22;14254;50.968;5.366;2022-12-07T15:20:05;7.50;99.90
26623;DHT22;14254;50.968;5.366;2022-12-07T15:22:31;7.40;99.90
26623;DHT22;14254;50.968;5.366;2022-12-07T15:24:57;7.40;99.90
26623;DHT22;14254;50.968;5.366;2022-12-07T15:27:23;7.40;99.90
26623;DHT22;14254;50.968;5.366;2022-12-07T15:29:49;7.40;99.90
26623;DHT22;14254;50.968;5.366;2022-12-07T15:32:14;7.40;99.90
26623;DHT22;14254;50.968;5.366;2022-12-07T15:34:40;7.30;99.90
26623;DHT22;14254;50.968;5.366;2022-12-07T15:37:06;7.40;99.90
26623;DHT22;14254;50.968;5.366;2022-12-07T15:39:32;7.30;99.90
26623;DHT22;14254;50.968;5.366;2022-12-07T15:41:58;7.30;99.90
26623;DHT22;14254;50.968;5.366;2022-12-07T15:44:24;7.40;99.90
26623;DHT22;14254;50.968;5.366;2022-12-07T15:47:07;7.40;99.90
26623;DHT22;14254;50.968;5.366;2022-12-07T15:49:33;7.30;99.90
26623;DHT22;14254;50.968;5.366;2022-12-07T15:51:59;7.20;99.90
26623;DHT22;14254;50.968;5.366;2022-12-07T15:54:27;7.20;99.90
26623;DHT22;14254;50.968;5.366;2022-12-07T15:56:53;7.20;99.90
26623;DHT22;14254;50.968;5.366;2022-12-07T15:59:19;7.10;99.90
26623;DHT22;14254;50.968;5.366;2022-12-07T16:01:45;7.00;99.90
26623;DHT22;14254;50.968;5.366;2022-12-07T16:04:11;7.10;99.90
26623;DHT22;14254;50.968;5.366;2022-12-07T16:06:36;6.90;99.90
26623;DHT22;14254;50.968;5.366;2022-12-07T16:09:03;6.60;99.90
26623;DHT22;14254;50.968;5.366;2022-12-07T16:11:29;6.70;99.90
26623;DHT22;14254;50.968;5.366;2022-12-07T16:13:55;6.60;99.90
26623;DHT22;14254;50.968;5.366;2022-12-07T16:16:21;6.70;99.90
26623;DHT22;14254;50.968;5.366;2022-12-07T16:18:48;6.70;99.90
26623;DHT22;14254;50.968;5.366;2022-12-07T16:21:15;6.70;99.90
26623;DHT22;14254;50.968;5.366;2022-12-07T16:23:41;6.80;99.90
26623;DHT22;14254;50.968;5.366;2022-12-07T16:26:16;6.80;99.90
26623;DHT22;14254;50.968;5.366;2022-12-07T16:28:42;6.70;99.90
26623;DHT22;14254;50.968;5.366;2022-12-07T16:31:10;6.70;99.90
26623;DHT22;14254;50.968;5.366;2022-12-07T16:33:37;6.70;99.90
26623;DHT22;14254;50.968;5.366;2022-12-07T16:36:05;6.70;99.90
26623;DHT22;14254;50.968;5.366;2022-12-07T16:38:31;6.50;99.90
26623;DHT22;14254;50.968;5.366;2022-12-07T16:40:57;6.50;99.90
26623;DHT22;14254;50.968;5.366;2022-12-07T16:43:23;6.50;99.90
26623;DHT22;14254;50.968;5.366;2022-12-07T16:45:49;6.60;99.90
26623;DHT22;14254;50.968;5.366;2022-12-07T16:48:15;6.50;99.90
26623;DHT22;14254;50.968;5.366;2022-12-07T16:50:42;6.60;99.90
26623;DHT22;14254;50.968;5.366;2022-12-07T16:53:09;6.60;99.90
26623;DHT22;14254;50.968;5.366;2022-12-07T16:55:43;6.60;99.90
26623;DHT22;14254;50.968;5.366;2022-12-07T16:58:09;6.50;99.90
26623;DHT22;14254;50.968;5.366;2022-12-07T17:00:36;6.30;99.90
26623;DHT22;14254;50.968;5.366;2022-12-07T17:03:03;6.30;99.90
26623;DHT22;14254;50.968;5.366;2022-12-07T17:05:29;6.20;99.90
26623;DHT22;14254;50.968;5.366;2022-12-07T17:07:55;6.30;99.90
26623;DHT22;14254;50.968;5.366;2022-12-07T17:10:21;6.20;99.90
26623;DHT22;14254;50.968;5.366;2022-12-07T17:12:47;6.30;99.90
26623;DHT22;14254;50.968;5.366;2022-12-07T17:15:13;6.10;99.90
26623;DHT22;14254;50.968;5.366;2022-12-07T17:17:45;6.30;99.90
26623;DHT22;14254;50.968;5.366;2022-12-07T17:20:12;6.20;99.90
26623;DHT22;14254;50.968;5.366;2022-12-07T17:22:38;6.30;99.90
26623;DHT22;14254;50.968;5.366;2022-12-07T17:25:04;6.30;99.90
26623;DHT22;14254;50.968;5.366;2022-12-07T17:27:30;6.10;99.90
26623;DHT22;14254;50.968;5.366;2022-12-07T17:29:56;6.10;99.90
26623;DHT22;14254;50.968;5.366;2022-12-07T17:32:22;6.10;99.90
26623;DHT22;14254;50.968;5.366;2022-12-07T17:34:47;6.20;99.90
26623;DHT22;14254;50.968;5.366;2022-12-07T17:37:13;6.20;99.90
26623;DHT22;14254;50.968;5.366;2022-12-07T17:39:39;6.30;99.90
26623;DHT22;14254;50.968;5.366;2022-12-07T17:42:04;6.20;99.90
26623;DHT22;14254;50.968;5.366;2022-12-07T17:44:48;6.30;99.90
26623;DHT22;14254;50.968;5.366;2022-12-07T17:47:14;6.30;99.90
26623;DHT22;14254;50.968;5.366;2022-12-07T17:49:42;6.20;99.90
26623;DHT22;14254;50.968;5.366;2022-12-07T17:52:11;6.20;99.90
26623;DHT22;14254;50.968;5.366;2022-12-07T17:54:55;6.30;99.90
26623;DHT22;14254;50.968;5.366;2022-12-07T17:57:21;6.30;99.90
26623;DHT22;14254;50.968;5.366;2022-12-07T17:59:47;6.30;99.90
26623;DHT22;14254;50.968;5.366;2022-12-07T18:02:12;6.20;99.90
26623;DHT22;14254;50.968;5.366;2022-12-07T18:04:38;6.30;99.90
26623;DHT22;14254;50.968;5.366;2022-12-07T18:07:06;6.40;99.90
26623;DHT22;14254;50.968;5.366;2022-12-07T18:09:32;6.40;99.90
26623;DHT22;14254;50.968;5.366;2022-12-07T18:11:58;6.30;99.90
26623;DHT22;14254;50.968;5.366;2022-12-07T18:14:24;6.30;99.90
26623;DHT22;14254;50.968;5.366;2022-12-07T18:16:49;6.40;99.90
26623;DHT22;14254;50.968;5.366;2022-12-07T18:19:15;6.40;99.90
26623;DHT22;14254;50.968;5.366;2022-12-07T18:21:42;6.40;99.90
26623;DHT22;14254;50.968;5.366;2022-12-07T18:24:11;6.40;99.90